createdAt,value
2017-12-25T00:02:09.928Z,101317.81
2017-12-25T00:04:37.484Z,101313.83
2017-12-25T00:07:05.164Z,101318.76
2017-12-25T00:09:32.790Z,101307.19
2017-12-25T00:12:00.372Z,101312.08
2017-12-25T00:14:28.013Z,101318.35
2017-12-25T00:16:55.537Z,101314.67
2017-12-25T00:19:23.080Z,101316.14
2017-12-25T00:21:50.600Z,101315.27
2017-12-25T00:24:18.118Z,101310.96
2017-12-25T00:26:45.688Z,101316.17
2017-12-25T00:29:13.257Z,101313.23
2017-12-25T00:31:40.933Z,101324.68
2017-12-25T00:34:08.818Z,101323.96
2017-12-25T00:36:36.462Z,101317.29
2017-12-25T00:39:03.994Z,101318.13
2017-12-25T00:41:31.537Z,101328.05
2017-12-25T00:43:59.137Z,101332.45
2017-12-25T00:46:26.653Z,101331.08
2017-12-25T00:48:54.725Z,101329.39
2017-12-25T00:51:22.254Z,101325.83
2017-12-25T00:53:49.893Z,101335.59
2017-12-25T00:56:17.414Z,101347.10
2017-12-25T00:58:44.973Z,101344.61
2017-12-25T01:01:12.502Z,101337.63
2017-12-25T01:03:40.135Z,101337.96
2017-12-25T01:06:07.695Z,101353.52
2017-12-25T01:08:35.241Z,101340.14
2017-12-25T01:11:02.757Z,101349.91
2017-12-25T01:13:30.274Z,101351.78
2017-12-25T01:15:57.785Z,101348.38
2017-12-25T01:18:25.394Z,101351.02
2017-12-25T01:20:52.951Z,101357.29
2017-12-25T01:23:20.465Z,101355.98
2017-12-25T01:25:51.826Z,101346.56
2017-12-25T01:28:19.869Z,101359.01
2017-12-25T01:30:47.385Z,101348.08
2017-12-25T01:33:14.900Z,101354.05
2017-12-25T01:35:42.509Z,101346.34
2017-12-25T01:38:10.033Z,101354.79
2017-12-25T01:40:37.556Z,101344.21
2017-12-25T01:43:05.086Z,101351.70
2017-12-25T01:45:32.598Z,101342.37
2017-12-25T01:48:00.116Z,101348.98
2017-12-25T01:50:28.439Z,101348.61
2017-12-25T01:52:55.953Z,101344.21
2017-12-25T01:55:24.368Z,101346.40
2017-12-25T01:57:58.457Z,101354.68
2017-12-25T02:00:32.552Z,101352.37
2017-12-25T02:03:00.066Z,101353.13
2017-12-25T02:05:30.383Z,101360.77
2017-12-25T02:08:05.730Z,101360.48
2017-12-25T02:10:33.254Z,101360.77
2017-12-25T02:13:00.777Z,101352.93
2017-12-25T02:15:28.288Z,101353.22
2017-12-25T02:17:55.832Z,101359.72
2017-12-25T02:20:23.345Z,101351.56
2017-12-25T02:22:50.864Z,101352.50
2017-12-25T02:25:18.414Z,101351.09
2017-12-25T02:27:45.934Z,101344.14
2017-12-25T02:30:13.449Z,101356.14
2017-12-25T02:32:40.956Z,101344.69
2017-12-25T02:35:08.477Z,101340.12
2017-12-25T02:37:35.994Z,101351.16
2017-12-25T02:40:03.515Z,101343.23
2017-12-25T02:42:31.042Z,101347.75
2017-12-25T02:44:58.555Z,101347.42
2017-12-25T02:47:26.082Z,101349.15
2017-12-25T02:49:53.619Z,101355.44
2017-12-25T02:52:21.140Z,101352.29
2017-12-25T02:54:48.656Z,101356.31
2017-12-25T02:57:16.176Z,101358.12
2017-12-25T02:59:43.685Z,101352.84
2017-12-25T03:02:11.195Z,101352.50
2017-12-25T03:04:38.703Z,101344.02
2017-12-25T03:07:06.227Z,101344.34
2017-12-25T03:09:33.747Z,101348.51
2017-12-25T03:12:01.272Z,101348.51
2017-12-25T03:14:28.787Z,101349.41
2017-12-25T03:16:56.300Z,101343.17
2017-12-25T03:19:23.812Z,101347.73
2017-12-25T03:21:51.319Z,101342.27
2017-12-25T03:24:18.828Z,101344.07
2017-12-25T03:26:46.332Z,101344.56
2017-12-25T03:29:13.839Z,101348.97
2017-12-25T03:31:41.351Z,101341.86
2017-12-25T03:34:08.864Z,101347.28
2017-12-25T03:36:36.368Z,101345.03
2017-12-25T03:39:03.886Z,101358.92
2017-12-25T03:41:31.421Z,101354.99
2017-12-25T03:43:58.937Z,101344.73
2017-12-25T03:46:26.449Z,101349.20
2017-12-25T03:48:53.961Z,101353.53
2017-12-25T03:51:21.472Z,101355.92
2017-12-25T03:53:48.968Z,101351.44
2017-12-25T03:56:16.494Z,101364.80
2017-12-25T03:58:44.016Z,101352.37
2017-12-25T04:01:11.529Z,101362.24
2017-12-25T04:03:39.034Z,101363.05
2017-12-25T04:06:06.544Z,101354.98
2017-12-25T04:08:34.082Z,101360.34
2017-12-25T04:11:01.595Z,101356.86
2017-12-25T04:13:29.108Z,101362.71
2017-12-25T04:15:56.649Z,101358.58
2017-12-25T04:18:24.157Z,101355.63
2017-12-25T04:20:51.669Z,101349.34
2017-12-25T04:23:19.193Z,101355.48
2017-12-25T04:25:46.701Z,101352.92
2017-12-25T04:28:14.209Z,101356.77
2017-12-25T04:30:41.718Z,101351.20
2017-12-25T04:33:09.229Z,101351.14
2017-12-25T04:35:36.765Z,101364.95
2017-12-25T04:38:04.277Z,101363.64
2017-12-25T04:40:31.795Z,101361.80
2017-12-25T04:42:59.312Z,101366.78
2017-12-25T04:45:26.838Z,101358.88
2017-12-25T04:47:54.351Z,101364.24
2017-12-25T04:50:21.894Z,101362.55
2017-12-25T04:52:49.405Z,101363.05
2017-12-25T04:55:16.908Z,101362.75
2017-12-25T04:57:44.413Z,101367.20
2017-12-25T05:00:11.912Z,101356.89
2017-12-25T05:02:39.421Z,101359.16
2017-12-25T05:05:06.936Z,101351.23
2017-12-25T05:07:34.448Z,101346.78
2017-12-25T05:10:01.967Z,101355.69
2017-12-25T05:12:29.474Z,101342.27
2017-12-25T05:14:56.977Z,101348.04
2017-12-25T05:17:24.489Z,101346.20
2017-12-25T05:19:51.993Z,101352.98
2017-12-25T05:22:19.525Z,101357.82
2017-12-25T05:24:47.057Z,101345.69
2017-12-25T05:27:14.575Z,101345.97
2017-12-25T05:29:42.082Z,101347.22
2017-12-25T05:32:09.601Z,101350.39
2017-12-25T05:34:37.112Z,101348.18
2017-12-25T05:37:04.616Z,101349.84
2017-12-25T05:39:32.116Z,101347.28
2017-12-25T05:41:59.629Z,101340.97
2017-12-25T05:44:27.133Z,101342.80
2017-12-25T05:46:54.649Z,101350.23
2017-12-25T05:49:22.166Z,101343.86
2017-12-25T05:51:49.665Z,101349.16
2017-12-25T05:54:17.172Z,101344.21
2017-12-25T05:56:44.690Z,101351.98
2017-12-25T05:59:12.202Z,101349.36
2017-12-25T06:01:39.709Z,101350.03
2017-12-25T06:04:07.221Z,101349.25
2017-12-25T06:06:34.721Z,101362.06
2017-12-25T06:09:02.220Z,101357.88
2017-12-25T06:11:29.730Z,101363.59
2017-12-25T06:13:57.228Z,101360.37
2017-12-25T06:16:24.747Z,101345.25
2017-12-25T06:18:52.249Z,101350.26
2017-12-25T06:21:19.752Z,101351.10
2017-12-25T06:23:47.260Z,101348.34
2017-12-25T06:26:14.777Z,101354.17
2017-12-25T06:28:42.313Z,101355.83
2017-12-25T06:31:09.822Z,101356.24
2017-12-25T06:33:37.326Z,101353.75
2017-12-25T06:36:04.850Z,101344.73
2017-12-25T06:38:32.361Z,101349.52
2017-12-25T06:40:59.869Z,101350.14
2017-12-25T06:43:27.381Z,101345.99
2017-12-25T06:45:54.889Z,101340.63
2017-12-25T06:48:22.396Z,101333.07
2017-12-25T06:50:49.913Z,101338.04
2017-12-25T06:53:17.417Z,101329.48
2017-12-25T06:55:44.938Z,101335.77
2017-12-25T06:58:12.452Z,101334.57
2017-12-25T07:00:39.957Z,101331.38
2017-12-25T07:03:07.474Z,101332.72
2017-12-25T07:05:34.992Z,101332.72
2017-12-25T07:08:02.498Z,101338.07
2017-12-25T07:10:29.993Z,101336.20
2017-12-25T07:12:57.517Z,101334.46
2017-12-25T07:15:25.034Z,101331.89
2017-12-25T07:17:52.536Z,101327.69
2017-12-25T07:20:20.050Z,101333.45
2017-12-25T07:22:47.556Z,101339.52
2017-12-25T07:25:15.072Z,101333.01
2017-12-25T07:27:42.577Z,101330.71
2017-12-25T07:30:10.076Z,101325.35
2017-12-25T07:32:37.578Z,101329.75
2017-12-25T07:35:05.085Z,101333.80
2017-12-25T07:37:32.594Z,101328.09
2017-12-25T07:40:00.102Z,101326.31
2017-12-25T07:42:27.613Z,101324.45
2017-12-25T07:44:55.117Z,101320.38
2017-12-25T07:47:22.632Z,101326.20
2017-12-25T07:49:50.136Z,101320.11
2017-12-25T07:52:17.635Z,101325.38
2017-12-25T07:54:45.150Z,101322.22
2017-12-25T07:57:12.654Z,101323.91
2017-12-25T07:59:40.162Z,101321.20
2017-12-25T08:02:07.672Z,101324.34
2017-12-25T08:04:35.173Z,101327.90
2017-12-25T08:07:02.682Z,101323.44
2017-12-25T08:09:30.190Z,101330.46
2017-12-25T08:11:57.712Z,101326.85
2017-12-25T08:14:25.229Z,101335.81
2017-12-25T08:16:52.740Z,101335.82
2017-12-25T08:19:20.244Z,101338.39
2017-12-25T08:21:47.757Z,101325.19
2017-12-25T08:24:15.274Z,101330.02
2017-12-25T08:26:42.781Z,101327.67
2017-12-25T08:29:10.296Z,101330.93
2017-12-25T08:31:37.830Z,101336.20
2017-12-25T08:34:05.341Z,101333.05
2017-12-25T08:36:32.852Z,101338.81
2017-12-25T08:39:00.368Z,101334.48
2017-12-25T08:41:27.872Z,101335.68
2017-12-25T08:43:55.395Z,101333.35
2017-12-25T08:46:22.916Z,101343.22
2017-12-25T08:48:50.442Z,101330.67
2017-12-25T08:51:17.965Z,101335.07
2017-12-25T08:53:45.487Z,101339.58
2017-12-25T08:56:12.999Z,101346.38
2017-12-25T08:58:40.504Z,101343.40
2017-12-25T09:01:08.020Z,101351.91
2017-12-25T09:03:35.520Z,101347.63
2017-12-25T09:06:03.025Z,101342.82
2017-12-25T09:08:30.537Z,101346.84
2017-12-25T09:10:58.042Z,101345.80
2017-12-25T09:13:25.566Z,101341.94
2017-12-25T09:15:53.080Z,101356.13
2017-12-25T09:18:20.593Z,101345.83
2017-12-25T09:20:48.106Z,101353.08
2017-12-25T09:23:15.617Z,101347.19
2017-12-25T09:25:43.125Z,101355.23
2017-12-25T09:28:10.645Z,101348.53
2017-12-25T09:30:38.158Z,101350.31
2017-12-25T09:33:05.673Z,101339.64
2017-12-25T09:35:33.195Z,101345.86
2017-12-25T09:38:00.709Z,101340.26
2017-12-25T09:40:28.230Z,101336.36
2017-12-25T09:42:55.735Z,101335.05
2017-12-25T09:45:23.253Z,101335.89
2017-12-25T09:47:50.756Z,101342.86
2017-12-25T09:50:18.261Z,101331.61
2017-12-25T09:52:45.760Z,101335.97
2017-12-25T09:55:13.269Z,101329.52
2017-12-25T09:57:40.787Z,101330.73
2017-12-25T10:00:08.313Z,101328.95
2017-12-25T10:02:35.821Z,101339.36
2017-12-25T10:05:03.409Z,101335.02
2017-12-25T10:07:30.925Z,101325.78
2017-12-25T10:09:58.425Z,101323.72
2017-12-25T10:12:25.945Z,101324.97
2017-12-25T10:14:53.451Z,101325.17
2017-12-25T10:17:21.005Z,101324.65
2017-12-25T10:19:48.527Z,101325.58
2017-12-25T10:22:16.047Z,101316.73
2017-12-25T10:24:43.553Z,101313.75
2017-12-25T10:27:11.056Z,101316.87
2017-12-25T10:29:38.592Z,101311.36
2017-12-25T10:32:06.129Z,101313.33
2017-12-25T10:34:33.638Z,101313.88
2017-12-25T10:37:01.145Z,101322.38
2017-12-25T10:39:28.692Z,101319.80
2017-12-25T10:41:56.199Z,101315.61
2017-12-25T10:44:23.720Z,101312.38
2017-12-25T10:46:51.333Z,101310.95
2017-12-25T10:49:18.839Z,101312.66
2017-12-25T10:51:46.359Z,101305.80
2017-12-25T10:54:13.891Z,101309.23
2017-12-25T10:56:41.423Z,101306.91
2017-12-25T10:59:08.937Z,101300.06
2017-12-25T11:04:03.237Z,101300.70
2017-12-25T11:06:30.748Z,101305.55
2017-12-25T11:08:58.253Z,101295.98
2017-12-25T11:11:25.756Z,101295.63
2017-12-25T11:13:53.270Z,101289.28
2017-12-25T11:16:20.790Z,101277.69
2017-12-25T11:18:48.303Z,101281.80
2017-12-25T11:21:15.818Z,101274.98
2017-12-25T11:23:43.383Z,101275.98
2017-12-25T11:26:10.940Z,101272.58
2017-12-25T11:28:38.496Z,101268.45
2017-12-25T11:31:06.049Z,101264.30
2017-12-25T11:33:33.554Z,101253.69
2017-12-25T11:36:01.168Z,101253.84
2017-12-25T11:38:28.673Z,101256.38
2017-12-25T11:40:56.198Z,101253.34
2017-12-25T11:43:23.726Z,101257.52
2017-12-25T11:45:51.247Z,101249.33
2017-12-25T11:48:18.774Z,101238.33
2017-12-25T11:50:46.286Z,101241.44
2017-12-25T11:53:13.810Z,101230.81
2017-12-25T11:55:41.328Z,101228.94
2017-12-25T11:58:08.840Z,101231.71
2017-12-25T12:00:36.357Z,101229.00
2017-12-25T12:03:03.898Z,101225.98
2017-12-25T12:05:31.412Z,101225.54
2017-12-25T12:07:58.963Z,101226.61
2017-12-25T12:10:26.476Z,101231.09
2017-12-25T12:12:53.993Z,101210.87
2017-12-25T12:15:21.510Z,101225.02
2017-12-25T12:17:49.024Z,101213.20
2017-12-25T12:20:16.525Z,101212.71
2017-12-25T12:22:44.036Z,101215.55
2017-12-25T12:25:11.545Z,101211.49
2017-12-25T12:27:39.067Z,101211.43
2017-12-25T12:30:06.595Z,101208.31
2017-12-25T12:32:34.123Z,101200.93
2017-12-25T12:35:01.649Z,101202.30
2017-12-25T12:37:29.179Z,101201.17
2017-12-25T12:39:56.689Z,101195.84
2017-12-25T12:42:24.337Z,101197.84
2017-12-25T12:44:51.963Z,101200.27
2017-12-25T12:47:19.514Z,101193.02
2017-12-25T12:49:47.100Z,101189.50
2017-12-25T12:52:14.643Z,101189.58
2017-12-25T12:54:42.153Z,101200.42
2017-12-25T12:57:09.661Z,101187.56
2017-12-25T12:59:37.184Z,101182.73
2017-12-25T13:02:04.759Z,101190.20
2017-12-25T13:04:32.444Z,101182.98
2017-12-25T13:07:00.148Z,101181.48
2017-12-25T13:09:27.824Z,101183.16
2017-12-25T13:11:55.375Z,101174.72
2017-12-25T13:14:22.920Z,101174.26
2017-12-25T13:16:50.428Z,101168.55
2017-12-25T13:19:17.933Z,101170.92
2017-12-25T13:21:45.461Z,101170.86
2017-12-25T13:24:13.031Z,101169.45
2017-12-25T13:26:40.602Z,101166.41
2017-12-25T13:29:08.319Z,101171.16
2017-12-25T13:31:35.977Z,101162.66
2017-12-25T13:34:05.109Z,101163.09
2017-12-25T13:36:32.746Z,101159.34
2017-12-25T13:39:00.304Z,101159.83
2017-12-25T13:41:27.936Z,101157.22
2017-12-25T13:43:55.513Z,101150.61
2017-12-25T13:46:23.099Z,101154.66
2017-12-25T13:48:50.651Z,101151.20
2017-12-25T13:51:18.152Z,101156.58
2017-12-25T13:53:45.648Z,101152.85
2017-12-25T13:56:13.160Z,101144.53
2017-12-25T13:58:40.937Z,101142.20
2017-12-25T14:01:08.476Z,101141.60
2017-12-25T14:03:36.077Z,101141.89
2017-12-25T14:06:03.774Z,101146.43
2017-12-25T14:08:31.307Z,101141.48
2017-12-25T14:10:58.814Z,101131.70
2017-12-25T14:13:26.322Z,101139.42
2017-12-25T14:15:53.862Z,101141.20
2017-12-25T14:18:21.441Z,101135.75
2017-12-25T14:20:49.132Z,101133.60
2017-12-25T14:23:16.701Z,101133.06
2017-12-25T14:25:44.287Z,101130.61
2017-12-25T14:28:11.838Z,101128.80
2017-12-25T14:30:39.342Z,101124.50
2017-12-25T14:33:06.921Z,101130.81
2017-12-25T14:35:34.445Z,101122.76
2017-12-25T14:38:02.072Z,101125.88
2017-12-25T14:40:29.796Z,101129.10
2017-12-25T14:42:57.532Z,101127.89
2017-12-25T14:45:25.159Z,101125.32
2017-12-25T14:47:52.711Z,101122.94
2017-12-25T14:50:20.295Z,101123.40
2017-12-25T14:52:47.806Z,101114.30
2017-12-25T14:55:15.367Z,101119.41
2017-12-25T14:57:42.901Z,101112.00
2017-12-25T15:00:10.411Z,101110.23
2017-12-25T15:02:38.012Z,101107.81
2017-12-25T15:05:05.692Z,101105.98
2017-12-25T15:07:33.332Z,101102.38
2017-12-25T15:10:00.839Z,101096.91
2017-12-25T15:12:28.417Z,101101.82
2017-12-25T15:14:55.936Z,101097.98
2017-12-25T15:17:23.445Z,101093.94
2017-12-25T15:19:50.944Z,101085.56
2017-12-25T15:22:18.468Z,101090.92
2017-12-25T15:24:46.204Z,101088.73
2017-12-25T15:27:13.745Z,101079.43
2017-12-25T15:29:41.258Z,101080.30
2017-12-25T15:32:08.769Z,101084.03
2017-12-25T15:34:36.439Z,101079.98
2017-12-25T15:37:04.113Z,101077.34
2017-12-25T15:39:31.765Z,101073.38
2017-12-25T15:41:59.328Z,101068.53
2017-12-25T15:44:26.833Z,101075.51
2017-12-25T15:46:54.341Z,101067.37
2017-12-25T15:49:22.021Z,101061.79
2017-12-25T15:51:49.564Z,101073.94
2017-12-25T15:54:17.098Z,101065.05
2017-12-25T15:56:44.609Z,101061.14
2017-12-25T15:59:12.270Z,101061.61
2017-12-25T16:01:39.792Z,101058.67
2017-12-25T16:04:07.338Z,101055.07
2017-12-25T16:06:34.862Z,101048.41
2017-12-25T16:09:02.469Z,101046.98
2017-12-25T16:11:29.992Z,101050.27
2017-12-25T16:13:57.521Z,101051.14
2017-12-25T16:16:25.021Z,101044.86
2017-12-25T16:18:52.550Z,101042.74
2017-12-25T16:21:20.093Z,101043.16
2017-12-25T16:23:47.631Z,101038.73
2017-12-25T16:26:15.196Z,101034.72
2017-12-25T16:28:42.818Z,101040.56
2017-12-25T16:33:37.126Z,101029.95
2017-12-25T16:36:04.639Z,101021.98
2017-12-25T16:38:32.140Z,101029.14
2017-12-25T16:40:59.708Z,101021.27
2017-12-25T16:43:27.339Z,101014.84
2017-12-25T16:45:54.879Z,101014.05
2017-12-25T16:48:22.418Z,101017.14
2017-12-25T16:50:49.952Z,101013.38
2017-12-25T16:53:17.557Z,101012.69
2017-12-25T16:55:45.099Z,101016.38
2017-12-25T16:58:12.781Z,101010.10
2017-12-25T17:00:40.424Z,101004.38
2017-12-25T17:03:07.994Z,101001.67
2017-12-25T17:05:35.533Z,100994.52
2017-12-25T17:08:03.043Z,100998.80
2017-12-25T17:10:30.574Z,101000.45
2017-12-25T17:12:58.104Z,100992.58
2017-12-25T17:15:25.837Z,100989.00
2017-12-25T17:17:53.525Z,100990.86
2017-12-25T17:20:21.033Z,100989.44
2017-12-25T17:22:48.541Z,100991.33
2017-12-25T17:25:16.065Z,100982.95
2017-12-25T17:27:43.591Z,100980.72
2017-12-25T17:30:11.104Z,100979.38
2017-12-25T17:32:38.808Z,100978.20
2017-12-25T17:35:06.419Z,100972.87
2017-12-25T17:37:33.979Z,100976.94
2017-12-25T17:40:01.514Z,100970.84
2017-12-25T17:42:29.030Z,100962.03
2017-12-25T17:44:56.568Z,100964.09
2017-12-25T17:47:24.149Z,100963.11
2017-12-25T17:49:51.816Z,100957.22
2017-12-25T17:52:19.393Z,100955.47
2017-12-25T17:54:46.990Z,100947.80
2017-12-25T17:57:14.541Z,100950.67
2017-12-25T17:59:42.046Z,100949.92
2017-12-25T18:02:09.563Z,100946.31
2017-12-25T18:04:37.078Z,100949.89
2017-12-25T18:07:04.801Z,100938.33
2017-12-25T18:09:32.621Z,100929.13
2017-12-25T18:12:00.282Z,100933.48
2017-12-25T18:14:27.821Z,100936.46
2017-12-25T18:16:55.412Z,100933.51
2017-12-25T18:19:22.924Z,100926.39
2017-12-25T18:21:50.517Z,100922.09
2017-12-25T18:24:18.127Z,100924.53
2017-12-25T18:26:45.625Z,100922.67
2017-12-25T18:29:13.130Z,100919.63
2017-12-25T18:31:40.685Z,100928.05
2017-12-25T18:34:08.188Z,100920.08
2017-12-25T18:36:35.755Z,100923.54
2017-12-25T18:39:03.391Z,100926.91
2017-12-25T18:41:31.063Z,100924.15
2017-12-25T18:43:58.647Z,100917.53
2017-12-25T18:46:26.190Z,100922.00
2017-12-25T18:48:53.725Z,100915.34
2017-12-25T18:51:21.236Z,100908.72
2017-12-25T18:53:48.782Z,100914.17
2017-12-25T18:56:16.449Z,100902.42
2017-12-25T18:58:44.053Z,100900.88
2017-12-25T19:01:11.761Z,100898.23
2017-12-25T19:03:39.280Z,100895.13
2017-12-25T19:06:06.810Z,100887.00
2017-12-25T19:08:35.236Z,100875.97
2017-12-25T19:11:02.858Z,100867.60
2017-12-25T19:13:30.563Z,100863.22
2017-12-25T19:15:58.240Z,100864.61
2017-12-25T19:18:25.821Z,100863.59
2017-12-25T19:20:53.329Z,100863.02
2017-12-25T19:23:20.896Z,100865.14
2017-12-25T19:25:48.515Z,100857.36
2017-12-25T19:28:16.044Z,100847.29
2017-12-25T19:30:43.646Z,100853.98
2017-12-25T19:33:12.111Z,100842.41
2017-12-25T19:35:39.620Z,100848.62
2017-12-25T19:38:07.222Z,100847.37
2017-12-25T19:40:34.796Z,100842.14
2017-12-25T19:43:02.300Z,100839.12
2017-12-25T19:45:29.918Z,100825.25
2017-12-25T19:47:57.429Z,100828.27
2017-12-25T19:50:24.961Z,100831.31
2017-12-25T19:52:52.479Z,100827.05
2017-12-25T19:55:20.057Z,100822.89
2017-12-25T19:57:47.615Z,100815.69
2017-12-25T20:00:15.137Z,100815.46
2017-12-25T20:02:42.654Z,100811.84
2017-12-25T20:05:10.170Z,100809.42
2017-12-25T20:07:37.747Z,100808.59
2017-12-25T20:10:05.257Z,100805.05
2017-12-25T20:12:32.875Z,100800.95
2017-12-25T20:15:00.398Z,100804.06
2017-12-25T20:17:27.926Z,100792.02
2017-12-25T20:19:55.559Z,100788.03
2017-12-25T20:22:23.221Z,100781.88
2017-12-25T20:24:51.318Z,100780.23
2017-12-25T20:27:18.877Z,100784.12
2017-12-25T20:29:46.504Z,100777.35
2017-12-25T20:32:14.009Z,100766.03
2017-12-25T20:34:41.509Z,100763.59
2017-12-25T20:37:09.033Z,100764.01
2017-12-25T20:39:36.551Z,100762.56
2017-12-25T20:42:04.086Z,100754.92
2017-12-25T20:44:31.590Z,100749.91
2017-12-25T20:46:59.105Z,100745.47
2017-12-25T20:49:26.606Z,100744.54
2017-12-25T20:51:54.111Z,100745.06
2017-12-25T20:54:21.648Z,100739.66
2017-12-25T20:56:49.170Z,100735.87
2017-12-25T20:59:16.683Z,100729.13
2017-12-25T21:01:44.916Z,100732.73
2017-12-25T21:04:12.425Z,100733.95
2017-12-25T21:06:40.376Z,100741.38
2017-12-25T21:09:07.886Z,100735.23
2017-12-25T21:11:35.445Z,100727.80
2017-12-25T21:14:02.988Z,100719.71
2017-12-25T21:16:31.450Z,100720.73
2017-12-25T21:18:58.964Z,100719.53
2017-12-25T21:21:26.491Z,100712.48
2017-12-25T21:23:54.493Z,100717.27
2017-12-25T21:26:21.998Z,100713.27
2017-12-25T21:28:49.513Z,100714.14
2017-12-25T21:31:17.142Z,100706.62
2017-12-25T21:33:44.662Z,100705.64
2017-12-25T21:36:12.161Z,100698.95
2017-12-25T21:38:39.667Z,100701.12
2017-12-25T21:41:07.201Z,100696.12
2017-12-25T21:43:34.705Z,100694.73
2017-12-25T21:46:02.284Z,100687.44
2017-12-25T21:48:29.789Z,100689.84
2017-12-25T21:50:57.291Z,100688.70
2017-12-25T21:53:24.797Z,100685.30
2017-12-25T21:55:52.302Z,100680.05
2017-12-25T21:58:19.864Z,100676.05
2017-12-25T22:00:47.516Z,100674.97
2017-12-25T22:03:15.073Z,100678.10
2017-12-25T22:05:42.576Z,100679.36
2017-12-25T22:08:10.269Z,100675.58
2017-12-25T22:10:37.777Z,100667.45
2017-12-25T22:13:05.281Z,100670.00
2017-12-25T22:15:32.793Z,100666.37
2017-12-25T22:18:00.369Z,100661.39
2017-12-25T22:20:28.032Z,100663.73
2017-12-25T22:22:55.586Z,100650.40
2017-12-25T22:25:23.092Z,100650.03
2017-12-25T22:27:50.606Z,100640.94
2017-12-25T22:30:18.178Z,100645.44
2017-12-25T22:32:45.705Z,100640.47
2017-12-25T22:35:13.357Z,100640.95
2017-12-25T22:37:40.874Z,100639.64
2017-12-25T22:40:08.521Z,100644.65
2017-12-25T22:42:36.160Z,100645.60
2017-12-25T22:45:03.656Z,100640.05
2017-12-25T22:47:31.399Z,100631.02
2017-12-25T22:49:58.932Z,100628.09
2017-12-25T22:52:26.465Z,100619.39
2017-12-25T22:54:54.006Z,100618.92
2017-12-25T22:57:21.636Z,100617.75
2017-12-25T22:59:49.612Z,100611.09
2017-12-25T23:02:17.173Z,100595.95
2017-12-25T23:04:44.697Z,100606.76
2017-12-25T23:07:12.294Z,100601.98
2017-12-25T23:09:39.917Z,100601.56
2017-12-25T23:12:07.513Z,100592.23
2017-12-25T23:14:35.037Z,100588.86
2017-12-25T23:17:02.628Z,100593.48
2017-12-25T23:19:30.297Z,100589.59
2017-12-25T23:21:58.266Z,100589.53
2017-12-25T23:24:25.773Z,100589.31
2017-12-25T23:26:53.510Z,100581.73
2017-12-25T23:29:21.016Z,100576.37
2017-12-25T23:31:48.533Z,100583.05
2017-12-25T23:34:16.154Z,100574.38
2017-12-25T23:36:43.770Z,100565.50
2017-12-25T23:39:11.469Z,100569.31
2017-12-25T23:41:38.977Z,100568.16
2017-12-25T23:44:06.498Z,100563.30
2017-12-25T23:46:34.022Z,100570.28
2017-12-25T23:49:01.583Z,100560.88
2017-12-25T23:51:29.096Z,100561.12
2017-12-25T23:53:56.643Z,100549.20
2017-12-25T23:56:24.192Z,100541.64
2017-12-25T23:58:51.695Z,100537.53
